sensor_id;sensor_type;location;lat;lon;timestamp;pressure;altitude;pressure_sealevel;temperature;humidity
63568;BME280;49715;42.386;20.434;2023-02-02T00:01:57;97648.41;;;6.38;49.20
63568;BME280;49715;42.386;20.434;2023-02-02T00:04:32;97646.59;;;6.38;49.41
63568;BME280;49715;42.386;20.434;2023-02-02T00:07:00;97648.16;;;6.41;49.19
63568;BME280;49715;42.386;20.434;2023-02-02T00:09:29;97646.38;;;6.41;49.09
63568;BME280;49715;42.386;20.434;2023-02-02T00:11:57;97653.16;;;6.44;49.33
63568;BME280;49715;42.386;20.434;2023-02-02T00:14:24;97654.22;;;6.41;49.03
63568;BME280;49715;42.386;20.434;2023-02-02T00:16:55;97631.75;;;6.28;49.39
63568;BME280;49715;42.386;20.434;2023-02-02T00:19:27;97650.53;;;6.33;49.43
63568;BME280;49715;42.386;20.434;2023-02-02T00:21:55;97644.34;;;6.34;49.44
63568;BME280;49715;42.386;20.434;2023-02-02T00:24:22;97652.69;;;6.28;49.52
63568;BME280;49715;42.386;20.434;2023-02-02T00:26:54;97657.31;;;6.24;49.52
63568;BME280;49715;42.386;20.434;2023-02-02T00:29:24;97647.31;;;6.18;49.59
63568;BME280;49715;42.386;20.434;2023-02-02T00:31:52;97660.28;;;6.19;49.91
63568;BME280;49715;42.386;20.434;2023-02-02T00:34:19;97649.22;;;6.16;49.93
63568;BME280;49715;42.386;20.434;2023-02-02T00:36:48;97652.06;;;6.13;49.91
63568;BME280;49715;42.386;20.434;2023-02-02T00:39:20;97638.38;;;6.09;50.07
63568;BME280;49715;42.386;20.434;2023-02-02T00:41:47;97652.19;;;6.11;50.03
63568;BME280;49715;42.386;20.434;2023-02-02T00:44:14;97656.69;;;6.09;49.85
63568;BME280;49715;42.386;20.434;2023-02-02T00:46:59;97660.88;;;6.12;49.91
63568;BME280;49715;42.386;20.434;2023-02-02T00:49:25;97645.03;;;6.02;49.89
63568;BME280;49715;42.386;20.434;2023-02-02T00:51:52;97650.97;;;6.04;49.63
63568;BME280;49715;42.386;20.434;2023-02-02T00:54:18;97647.53;;;6.04;50.15
63568;BME280;49715;42.386;20.434;2023-02-02T00:56:45;97657.03;;;6.05;50.08
63568;BME280;49715;42.386;20.434;2023-02-02T00:59:11;97652.91;;;6.02;50.17
63568;BME280;49715;42.386;20.434;2023-02-02T01:01:38;97652.06;;;6.02;50.24
63568;BME280;49715;42.386;20.434;2023-02-02T01:04:04;97642.78;;;5.98;49.80
63568;BME280;49715;42.386;20.434;2023-02-02T01:06:31;97639.34;;;5.97;50.07
63568;BME280;49715;42.386;20.434;2023-02-02T01:08:57;97636.72;;;5.97;49.98
63568;BME280;49715;42.386;20.434;2023-02-02T01:11:24;97633.97;;;5.99;50.00
63568;BME280;49715;42.386;20.434;2023-02-02T01:13:51;97637.31;;;6.01;50.16
63568;BME280;49715;42.386;20.434;2023-02-02T01:16:17;97635.53;;;6.01;50.12
63568;BME280;49715;42.386;20.434;2023-02-02T01:18:44;97626.13;;;5.99;50.06
63568;BME280;49715;42.386;20.434;2023-02-02T01:21:11;97627.78;;;6.00;50.11
63568;BME280;49715;42.386;20.434;2023-02-02T01:23:37;97626.00;;;6.00;51.82
63568;BME280;49715;42.386;20.434;2023-02-02T01:26:06;97615.91;;;5.96;49.99
63568;BME280;49715;42.386;20.434;2023-02-02T01:28:33;97621.16;;;5.96;50.28
63568;BME280;49715;42.386;20.434;2023-02-02T01:31:09;97618.28;;;5.99;50.11
63568;BME280;49715;42.386;20.434;2023-02-02T01:33:36;97620.91;;;5.99;50.10
63568;BME280;49715;42.386;20.434;2023-02-02T01:36:06;97613.28;;;5.96;50.44
63568;BME280;49715;42.386;20.434;2023-02-02T01:38:33;97619.59;;;5.93;50.09
63568;BME280;49715;42.386;20.434;2023-02-02T01:41:00;97613.41;;;5.94;50.37
63568;BME280;49715;42.386;20.434;2023-02-02T01:46:13;97599.09;;;5.87;50.08
63568;BME280;49715;42.386;20.434;2023-02-02T01:48:42;97611.84;;;5.91;50.38
63568;BME280;49715;42.386;20.434;2023-02-02T01:51:13;97611.84;;;5.91;50.49
63568;BME280;49715;42.386;20.434;2023-02-02T01:53:42;97604.06;;;5.90;50.45
63568;BME280;49715;42.386;20.434;2023-02-02T01:56:11;97608.28;;;5.92;50.52
63568;BME280;49715;42.386;20.434;2023-02-02T01:58:41;97606.63;;;5.91;50.27
63568;BME280;49715;42.386;20.434;2023-02-02T02:01:09;97612.06;;;5.88;50.55
63568;BME280;49715;42.386;20.434;2023-02-02T02:03:36;97608.28;;;5.92;50.74
63568;BME280;49715;42.386;20.434;2023-02-02T02:06:04;97598.78;;;5.91;50.86
63568;BME280;49715;42.386;20.434;2023-02-02T02:08:41;97606.94;;;5.87;50.82
63568;BME280;49715;42.386;20.434;2023-02-02T02:11:09;97594.81;;;5.86;50.91
63568;BME280;49715;42.386;20.434;2023-02-02T02:13:37;97589.94;;;5.81;50.98
63568;BME280;49715;42.386;20.434;2023-02-02T02:16:56;97600.28;;;5.83;51.23
63568;BME280;49715;42.386;20.434;2023-02-02T02:40:42;97597.84;;;5.57;52.07
63568;BME280;49715;42.386;20.434;2023-02-02T02:43:23;97599.72;;;5.55;51.75
63568;BME280;49715;42.386;20.434;2023-02-02T02:45:53;97601.63;;;5.53;51.72
63568;BME280;49715;42.386;20.434;2023-02-02T02:48:20;97606.88;;;5.53;51.81
63568;BME280;49715;42.386;20.434;2023-02-02T02:50:47;97601.63;;;5.53;51.68
63568;BME280;49715;42.386;20.434;2023-02-02T02:53:17;97600.19;;;5.49;51.83
63568;BME280;49715;42.386;20.434;2023-02-02T02:55:52;97592.69;;;5.45;51.92
63568;BME280;49715;42.386;20.434;2023-02-02T03:01:18;97608.38;;;5.45;51.84
63568;BME280;49715;42.386;20.434;2023-02-02T03:06:45;97616.22;;;5.45;51.63
63568;BME280;49715;42.386;20.434;2023-02-02T03:09:25;97610.38;;;5.41;52.02
63568;BME280;49715;42.386;20.434;2023-02-02T03:11:54;97607.78;;;5.41;51.95
63568;BME280;49715;42.386;20.434;2023-02-02T03:14:20;97612.16;;;5.40;51.78
63568;BME280;49715;42.386;20.434;2023-02-02T03:16:50;97605.50;;;5.36;51.79
63568;BME280;49715;42.386;20.434;2023-02-02T03:19:16;97597.66;;;5.36;51.66
63568;BME280;49715;42.386;20.434;2023-02-02T03:21:42;97598.84;;;5.32;51.77
63568;BME280;49715;42.386;20.434;2023-02-02T03:24:09;97598.91;;;5.20;51.68
63568;BME280;49715;42.386;20.434;2023-02-02T03:26:36;97596.28;;;5.08;52.01
63568;BME280;49715;42.386;20.434;2023-02-02T03:29:03;97601.59;;;5.07;52.09
63568;BME280;49715;42.386;20.434;2023-02-02T03:31:29;97595.94;;;4.89;52.09
63568;BME280;49715;42.386;20.434;2023-02-02T03:33:56;97593.88;;;4.81;52.15
63568;BME280;49715;42.386;20.434;2023-02-02T03:36:23;97600.03;;;4.80;52.65
63568;BME280;49715;42.386;20.434;2023-02-02T03:38:49;97592.53;;;4.76;52.53
63568;BME280;49715;42.386;20.434;2023-02-02T03:41:15;97593.38;;;4.76;52.68
63568;BME280;49715;42.386;20.434;2023-02-02T03:43:42;97597.44;;;4.80;53.08
63568;BME280;49715;42.386;20.434;2023-02-02T03:46:08;97574.63;;;4.82;53.11
63568;BME280;49715;42.386;20.434;2023-02-02T03:48:36;97578.47;;;4.89;53.11
63568;BME280;49715;42.386;20.434;2023-02-02T03:51:12;97585.03;;;4.95;53.08
63568;BME280;49715;42.386;20.434;2023-02-02T03:53:40;97572.66;;;4.86;52.81
63568;BME280;49715;42.386;20.434;2023-02-02T03:56:09;97572.84;;;4.83;53.07
63568;BME280;49715;42.386;20.434;2023-02-02T03:58:35;97584.69;;;4.76;52.84
63568;BME280;49715;42.386;20.434;2023-02-02T04:01:08;97589.25;;;4.61;52.70
63568;BME280;49715;42.386;20.434;2023-02-02T04:03:36;97590.03;;;4.37;53.23
63568;BME280;49715;42.386;20.434;2023-02-02T04:06:02;97596.84;;;4.14;53.47
63568;BME280;49715;42.386;20.434;2023-02-02T04:08:28;97596.13;;;4.00;53.69
63568;BME280;49715;42.386;20.434;2023-02-02T04:10:56;97610.97;;;3.86;55.11
63568;BME280;49715;42.386;20.434;2023-02-02T04:13:22;97596.16;;;3.87;54.04
63568;BME280;49715;42.386;20.434;2023-02-02T04:15:58;97592.28;;;3.80;54.63
63568;BME280;49715;42.386;20.434;2023-02-02T04:18:25;97606.69;;;3.85;54.33
63568;BME280;49715;42.386;20.434;2023-02-02T04:20:58;97617.44;;;3.94;54.33
63568;BME280;49715;42.386;20.434;2023-02-02T04:23:26;97614.81;;;3.94;53.96
63568;BME280;49715;42.386;20.434;2023-02-02T04:25:53;97615.97;;;3.90;54.04
63568;BME280;49715;42.386;20.434;2023-02-02T04:28:20;97622.56;;;3.82;54.07
63568;BME280;49715;42.386;20.434;2023-02-02T04:30:47;97617.75;;;3.76;54.34
63568;BME280;49715;42.386;20.434;2023-02-02T04:33:14;97618.97;;;3.71;54.45
63568;BME280;49715;42.386;20.434;2023-02-02T04:35:43;97611.28;;;3.69;54.47
63568;BME280;49715;42.386;20.434;2023-02-02T04:38:10;97612.41;;;3.65;54.39
63568;BME280;49715;42.386;20.434;2023-02-02T04:40:41;97606.91;;;3.57;54.51
63568;BME280;49715;42.386;20.434;2023-02-02T04:43:08;97615.56;;;3.57;54.39
63568;BME280;49715;42.386;20.434;2023-02-02T04:45:35;97618.66;;;3.50;54.57
63568;BME280;49715;42.386;20.434;2023-02-02T04:48:01;97609.78;;;3.40;55.05
63568;BME280;49715;42.386;20.434;2023-02-02T04:50:28;97609.66;;;3.41;55.12
63568;BME280;49715;42.386;20.434;2023-02-02T04:52:55;97618.66;;;3.50;55.38
63568;BME280;49715;42.386;20.434;2023-02-02T04:55:22;97623.06;;;3.62;55.37
63568;BME280;49715;42.386;20.434;2023-02-02T04:57:48;97617.00;;;3.74;55.53
63568;BME280;49715;42.386;20.434;2023-02-02T05:00:15;97615.78;;;3.93;55.39
63568;BME280;49715;42.386;20.434;2023-02-02T05:02:42;97606.88;;;4.08;55.48
63568;BME280;49715;42.386;20.434;2023-02-02T05:05:11;97612.38;;;4.29;54.89
63568;BME280;49715;42.386;20.434;2023-02-02T05:07:38;97608.94;;;4.41;55.02
63568;BME280;49715;42.386;20.434;2023-02-02T05:10:06;97623.31;;;4.59;54.70
63568;BME280;49715;42.386;20.434;2023-02-02T05:12:33;97618.97;;;4.71;54.44
63568;BME280;49715;42.386;20.434;2023-02-02T05:15:00;97615.09;;;4.77;54.17
63568;BME280;49715;42.386;20.434;2023-02-02T05:17:29;97605.72;;;4.74;54.00
63568;BME280;49715;42.386;20.434;2023-02-02T05:19:56;97624.25;;;4.82;53.84
63568;BME280;49715;42.386;20.434;2023-02-02T05:22:22;97623.25;;;4.72;53.72
63568;BME280;49715;42.386;20.434;2023-02-02T05:24:48;97636.53;;;4.69;53.62
63568;BME280;49715;42.386;20.434;2023-02-02T05:27:15;97633.63;;;4.61;53.65
63568;BME280;49715;42.386;20.434;2023-02-02T05:29:41;97634.16;;;4.53;54.05
63568;BME280;49715;42.386;20.434;2023-02-02T05:32:08;97625.94;;;4.47;53.93
63568;BME280;49715;42.386;20.434;2023-02-02T05:34:36;97631.34;;;4.44;54.36
63568;BME280;49715;42.386;20.434;2023-02-02T05:37:02;97636.06;;;4.51;54.35
63568;BME280;49715;42.386;20.434;2023-02-02T05:39:28;97625.41;;;4.54;54.44
63568;BME280;49715;42.386;20.434;2023-02-02T05:41:55;97627.56;;;4.60;54.62
63568;BME280;49715;42.386;20.434;2023-02-02T05:44:21;97624.41;;;4.68;54.39
63568;BME280;49715;42.386;20.434;2023-02-02T05:46:48;97615.41;;;4.72;54.43
63568;BME280;49715;42.386;20.434;2023-02-02T05:49:14;97618.78;;;4.74;54.43
63568;BME280;49715;42.386;20.434;2023-02-02T05:51:47;97610.19;;;4.72;54.45
63568;BME280;49715;42.386;20.434;2023-02-02T05:54:14;97620.44;;;4.75;54.56
63568;BME280;49715;42.386;20.434;2023-02-02T05:56:45;97618.19;;;4.82;54.70
63568;BME280;49715;42.386;20.434;2023-02-02T05:59:12;97610.78;;;4.88;54.50
63568;BME280;49715;42.386;20.434;2023-02-02T06:01:39;97613.66;;;4.97;54.61
63568;BME280;49715;42.386;20.434;2023-02-02T06:04:06;97612.00;;;4.96;54.46
63568;BME280;49715;42.386;20.434;2023-02-02T06:06:33;97607.25;;;5.01;54.58
63568;BME280;49715;42.386;20.434;2023-02-02T06:09:01;97604.03;;;4.97;54.32
63568;BME280;49715;42.386;20.434;2023-02-02T06:11:27;97600.50;;;4.98;54.41
63568;BME280;49715;42.386;20.434;2023-02-02T06:13:54;97599.88;;;4.95;54.84
63568;BME280;49715;42.386;20.434;2023-02-02T06:16:20;97607.47;;;4.98;54.66
63568;BME280;49715;42.386;20.434;2023-02-02T06:18:47;97618.44;;;5.03;54.64
63568;BME280;49715;42.386;20.434;2023-02-02T06:21:13;97625.84;;;5.09;54.72
63568;BME280;49715;42.386;20.434;2023-02-02T06:23:40;97624.88;;;5.10;54.55
63568;BME280;49715;42.386;20.434;2023-02-02T06:26:15;97630.94;;;5.10;54.75
63568;BME280;49715;42.386;20.434;2023-02-02T06:28:42;97638.66;;;5.12;54.78
63568;BME280;49715;42.386;20.434;2023-02-02T06:31:09;97642.00;;;5.14;54.86
63568;BME280;49715;42.386;20.434;2023-02-02T06:33:36;97625.09;;;5.07;55.28
63568;BME280;49715;42.386;20.434;2023-02-02T06:36:05;97635.97;;;5.13;55.24
63568;BME280;49715;42.386;20.434;2023-02-02T06:38:31;97644.78;;;5.24;55.20
63568;BME280;49715;42.386;20.434;2023-02-02T06:40:59;97642.66;;;5.29;55.01
63568;BME280;49715;42.386;20.434;2023-02-02T06:43:26;97636.78;;;5.38;54.88
63568;BME280;49715;42.386;20.434;2023-02-02T06:45:53;97633.31;;;5.37;54.85
63568;BME280;49715;42.386;20.434;2023-02-02T06:48:19;97629.50;;;5.41;54.77
63568;BME280;49715;42.386;20.434;2023-02-02T06:50:46;97631.09;;;5.55;54.67
63568;BME280;49715;42.386;20.434;2023-02-02T06:53:15;97626.50;;;5.59;54.70
63568;BME280;49715;42.386;20.434;2023-02-02T06:55:58;97627.47;;;5.69;54.63
63568;BME280;49715;42.386;20.434;2023-02-02T06:58:29;97625.59;;;5.71;54.72
63568;BME280;49715;42.386;20.434;2023-02-02T07:01:04;97641.41;;;5.81;54.55
63568;BME280;49715;42.386;20.434;2023-02-02T07:03:31;97633.09;;;5.87;54.67
63568;BME280;49715;42.386;20.434;2023-02-02T07:05:58;97633.38;;;5.95;54.42
63568;BME280;49715;42.386;20.434;2023-02-02T07:08:25;97627.78;;;6.00;54.26
63568;BME280;49715;42.386;20.434;2023-02-02T07:10:51;97633.41;;;6.06;54.27
63568;BME280;49715;42.386;20.434;2023-02-02T07:13:17;97647.19;;;6.19;54.27
63568;BME280;49715;42.386;20.434;2023-02-02T07:15:44;97655.16;;;6.29;54.00
63568;BME280;49715;42.386;20.434;2023-02-02T07:18:10;97650.19;;;6.37;53.89
63568;BME280;49715;42.386;20.434;2023-02-02T07:20:37;97648.78;;;6.44;53.81
63568;BME280;49715;42.386;20.434;2023-02-02T07:23:04;97649.34;;;6.48;53.80
63568;BME280;49715;42.386;20.434;2023-02-02T07:25:32;97651.38;;;6.56;53.78
63568;BME280;49715;42.386;20.434;2023-02-02T07:27:58;97656.84;;;6.64;53.90
63568;BME280;49715;42.386;20.434;2023-02-02T07:30:24;97652.91;;;6.69;53.78
63568;BME280;49715;42.386;20.434;2023-02-02T07:32:55;97653.13;;;6.78;53.75
63568;BME280;49715;42.386;20.434;2023-02-02T07:35:22;97649.31;;;6.82;53.72
63568;BME280;49715;42.386;20.434;2023-02-02T07:37:55;97662.66;;;6.90;53.98
63568;BME280;49715;42.386;20.434;2023-02-02T07:40:22;97649.41;;;6.91;53.67
63568;BME280;49715;42.386;20.434;2023-02-02T07:42:48;97664.41;;;7.01;53.88
63568;BME280;49715;42.386;20.434;2023-02-02T07:45:15;97659.75;;;7.04;53.73
63568;BME280;49715;42.386;20.434;2023-02-02T07:47:41;97672.97;;;7.14;53.76
63568;BME280;49715;42.386;20.434;2023-02-02T07:50:08;97664.59;;;7.20;53.52
63568;BME280;49715;42.386;20.434;2023-02-02T07:52:35;97662.31;;;7.27;53.75
63568;BME280;49715;42.386;20.434;2023-02-02T07:55:01;97657.66;;;7.30;53.69
63568;BME280;49715;42.386;20.434;2023-02-02T07:57:28;97657.16;;;7.36;53.69
63568;BME280;49715;42.386;20.434;2023-02-02T07:59:54;97657.50;;;7.43;53.64
63568;BME280;49715;42.386;20.434;2023-02-02T08:02:21;97643.03;;;7.48;53.63
63568;BME280;49715;42.386;20.434;2023-02-02T08:04:47;97647.78;;;7.55;53.48
63568;BME280;49715;42.386;20.434;2023-02-02T08:07:14;97640.63;;;7.57;53.51
63568;BME280;49715;42.386;20.434;2023-02-02T08:09:44;97633.91;;;7.64;53.34
63568;BME280;49715;42.386;20.434;2023-02-02T08:12:12;97635.91;;;7.71;53.36
63568;BME280;49715;42.386;20.434;2023-02-02T08:14:38;97626.94;;;7.74;53.29
63568;BME280;49715;42.386;20.434;2023-02-02T08:17:05;97621.31;;;7.79;53.29
63568;BME280;49715;42.386;20.434;2023-02-02T08:19:31;97647.75;;;7.87;53.22
63568;BME280;49715;42.386;20.434;2023-02-02T08:21:57;97622.34;;;7.87;53.27
63568;BME280;49715;42.386;20.434;2023-02-02T08:24:24;97627.63;;;7.97;52.80
63568;BME280;49715;42.386;20.434;2023-02-02T08:26:51;97614.91;;;7.92;53.02
63568;BME280;49715;42.386;20.434;2023-02-02T08:29:17;97624.63;;;8.02;52.84
63568;BME280;49715;42.386;20.434;2023-02-02T08:31:44;97622.00;;;8.02;52.82
63568;BME280;49715;42.386;20.434;2023-02-02T08:34:12;97606.66;;;7.97;52.75
63568;BME280;49715;42.386;20.434;2023-02-02T08:36:39;97618.84;;;8.08;52.55
63568;BME280;49715;42.386;20.434;2023-02-02T08:39:09;97610.28;;;8.06;52.68
63568;BME280;49715;42.386;20.434;2023-02-02T08:41:37;97625.13;;;8.16;52.54
63568;BME280;49715;42.386;20.434;2023-02-02T08:44:04;97610.34;;;8.15;52.24
63568;BME280;49715;42.386;20.434;2023-02-02T08:46:31;97619.34;;;8.22;52.31
63568;BME280;49715;42.386;20.434;2023-02-02T08:48:57;97611.31;;;8.24;52.08
63568;BME280;49715;42.386;20.434;2023-02-02T08:51:25;97610.69;;;8.32;52.03
63568;BME280;49715;42.386;20.434;2023-02-02T08:53:53;97612.66;;;8.39;51.90
63568;BME280;49715;42.386;20.434;2023-02-02T08:56:23;97605.25;;;8.44;51.89
63568;BME280;49715;42.386;20.434;2023-02-02T08:58:51;97598.63;;;8.50;51.70
63568;BME280;49715;42.386;20.434;2023-02-02T09:01:21;97605.56;;;8.61;51.55
63568;BME280;49715;42.386;20.434;2023-02-02T09:03:47;97608.34;;;8.69;51.61
63568;BME280;49715;42.386;20.434;2023-02-02T09:06:16;97598.13;;;8.75;51.32
63568;BME280;49715;42.386;20.434;2023-02-02T09:08:44;97611.56;;;8.82;51.26
63568;BME280;49715;42.386;20.434;2023-02-02T09:11:13;97607.69;;;8.86;51.25
63568;BME280;49715;42.386;20.434;2023-02-02T09:13:42;97607.44;;;8.99;51.08
63568;BME280;49715;42.386;20.434;2023-02-02T09:16:16;97612.97;;;9.06;50.82
63568;BME280;49715;42.386;20.434;2023-02-02T09:18:44;97608.00;;;9.12;50.58
63568;BME280;49715;42.386;20.434;2023-02-02T09:21:14;97612.31;;;9.23;50.56
63568;BME280;49715;42.386;20.434;2023-02-02T09:23:42;97591.53;;;9.29;50.40
63568;BME280;49715;42.386;20.434;2023-02-02T09:26:20;97594.03;;;9.31;50.28
63568;BME280;49715;42.386;20.434;2023-02-02T09:28:52;97604.44;;;9.42;49.50
63568;BME280;49715;42.386;20.434;2023-02-02T09:31:20;97601.91;;;9.50;50.02
63568;BME280;49715;42.386;20.434;2023-02-02T09:33:47;97594.59;;;9.54;49.90
63568;BME280;49715;42.386;20.434;2023-02-02T09:36:16;97599.97;;;9.62;49.79
63568;BME280;49715;42.386;20.434;2023-02-02T09:38:43;97600.66;;;9.74;49.27
63568;BME280;49715;42.386;20.434;2023-02-02T09:41:27;97610.09;;;9.76;48.86
63568;BME280;49715;42.386;20.434;2023-02-02T09:49:37;97588.00;;;9.97;48.09
63568;BME280;49715;42.386;20.434;2023-02-02T09:52:15;97598.09;;;10.11;48.69
63568;BME280;49715;42.386;20.434;2023-02-02T09:54:46;97595.13;;;10.14;48.38
63568;BME280;49715;42.386;20.434;2023-02-02T09:57:19;97587.63;;;10.19;47.62
63568;BME280;49715;42.386;20.434;2023-02-02T09:59:49;97594.44;;;10.22;48.02
63568;BME280;49715;42.386;20.434;2023-02-02T10:02:25;97590.41;;;10.27;47.99
63568;BME280;49715;42.386;20.434;2023-02-02T10:04:57;97578.47;;;10.33;48.00
63568;BME280;49715;42.386;20.434;2023-02-02T10:07:37;97570.69;;;10.41;47.36
63568;BME280;49715;42.386;20.434;2023-02-02T10:10:38;97569.41;;;10.45;46.20
63568;BME280;49715;42.386;20.434;2023-02-02T10:13:18;97569.88;;;10.58;46.98
63568;BME280;49715;42.386;20.434;2023-02-02T10:16:13;97571.94;;;10.65;46.12
63568;BME280;49715;42.386;20.434;2023-02-02T10:18:59;97575.63;;;10.72;45.59
63568;BME280;49715;42.386;20.434;2023-02-02T10:21:36;97566.03;;;10.80;46.83
63568;BME280;49715;42.386;20.434;2023-02-02T10:24:20;97553.00;;;10.79;46.23
63568;BME280;49715;42.386;20.434;2023-02-02T10:27:14;97560.97;;;10.87;44.48
63568;BME280;49715;42.386;20.434;2023-02-02T10:30:00;97561.72;;;10.97;45.58
63568;BME280;49715;42.386;20.434;2023-02-02T10:46:33;97537.38;;;11.57;44.03
63568;BME280;49715;42.386;20.434;2023-02-02T10:51:34;97520.28;;;11.69;44.97
63568;BME280;49715;42.386;20.434;2023-02-02T10:57:13;97502.06;;;11.84;44.77
63568;BME280;49715;42.386;20.434;2023-02-02T11:00:09;97497.78;;;11.83;42.43
63568;BME280;49715;42.386;20.434;2023-02-02T11:02:36;97486.13;;;11.94;44.38
63568;BME280;49715;42.386;20.434;2023-02-02T11:05:04;97487.00;;;12.02;44.26
63568;BME280;49715;42.386;20.434;2023-02-02T11:07:52;97479.41;;;12.07;43.80
63568;BME280;49715;42.386;20.434;2023-02-02T11:10:19;97466.69;;;12.03;43.51
63568;BME280;49715;42.386;20.434;2023-02-02T11:12:49;97489.31;;;12.05;43.38
63568;BME280;49715;42.386;20.434;2023-02-02T11:15:36;97465.56;;;12.05;41.17
63568;BME280;49715;42.386;20.434;2023-02-02T11:18:26;97455.47;;;12.09;41.31
63568;BME280;49715;42.386;20.434;2023-02-02T11:20:56;97461.78;;;12.16;43.27
63568;BME280;49715;42.386;20.434;2023-02-02T11:23:25;97452.75;;;12.27;43.03
63568;BME280;49715;42.386;20.434;2023-02-02T11:26:00;97447.63;;;12.33;41.78
63568;BME280;49715;42.386;20.434;2023-02-02T11:28:31;97457.44;;;12.49;42.65
63568;BME280;49715;42.386;20.434;2023-02-02T11:30:59;97451.28;;;12.49;42.46
63568;BME280;49715;42.386;20.434;2023-02-02T11:33:31;97444.22;;;12.49;41.31
63568;BME280;49715;42.386;20.434;2023-02-02T11:36:03;97444.34;;;12.48;42.23
63568;BME280;49715;42.386;20.434;2023-02-02T11:38:30;97442.88;;;12.53;42.04
63568;BME280;49715;42.386;20.434;2023-02-02T11:41:04;97438.13;;;12.65;41.74
63568;BME280;49715;42.386;20.434;2023-02-02T11:43:39;97442.25;;;12.76;41.29
63568;BME280;49715;42.386;20.434;2023-02-02T11:46:26;97433.66;;;12.82;39.51
63568;BME280;49715;42.386;20.434;2023-02-02T11:49:05;97446.25;;;12.96;39.80
63568;BME280;49715;42.386;20.434;2023-02-02T11:51:38;97447.91;;;13.05;40.98
63568;BME280;49715;42.386;20.434;2023-02-02T11:54:24;97430.88;;;13.08;39.17
63568;BME280;49715;42.386;20.434;2023-02-02T11:56:55;97436.66;;;13.11;40.76
63568;BME280;49715;42.386;20.434;2023-02-02T11:59:40;97433.66;;;13.06;37.42
63568;BME280;49715;42.386;20.434;2023-02-02T12:04:47;97413.00;;;13.34;40.34
63568;BME280;49715;42.386;20.434;2023-02-02T12:07:26;97422.03;;;13.56;39.65
63568;BME280;49715;42.386;20.434;2023-02-02T12:09:57;97415.91;;;13.64;39.56
63568;BME280;49715;42.386;20.434;2023-02-02T12:15:30;97405.94;;;13.74;38.63
63568;BME280;49715;42.386;20.434;2023-02-02T12:21:13;97406.28;;;13.71;38.29
63568;BME280;49715;42.386;20.434;2023-02-02T12:23:50;97407.94;;;13.72;39.21
63568;BME280;49715;42.386;20.434;2023-02-02T12:34:46;97423.34;;;13.77;38.97
63568;BME280;49715;42.386;20.434;2023-02-02T12:37:35;97411.72;;;13.78;36.07
63568;BME280;49715;42.386;20.434;2023-02-02T12:40:32;97409.78;;;13.72;36.80
63568;BME280;49715;42.386;20.434;2023-02-02T12:43:33;97412.06;;;13.75;36.41
63568;BME280;49715;42.386;20.434;2023-02-02T12:49:12;97395.56;;;13.64;37.54
63568;BME280;49715;42.386;20.434;2023-02-02T12:57:41;97389.34;;;13.88;37.21
63568;BME280;49715;42.386;20.434;2023-02-02T13:11:30;97387.75;;;14.10;37.75
63568;BME280;49715;42.386;20.434;2023-02-02T13:14:15;97408.28;;;14.08;36.25
63568;BME280;49715;42.386;20.434;2023-02-02T13:16:46;97381.91;;;14.15;38.26
63568;BME280;49715;42.386;20.434;2023-02-02T13:19:35;97379.41;;;14.22;36.61
63568;BME280;49715;42.386;20.434;2023-02-02T13:22:06;97398.53;;;14.40;38.17
63568;BME280;49715;42.386;20.434;2023-02-02T13:24:37;97401.19;;;14.40;38.16
63568;BME280;49715;42.386;20.434;2023-02-02T13:27:11;97388.66;;;14.26;37.96
63568;BME280;49715;42.386;20.434;2023-02-02T13:29:43;97406.91;;;14.21;38.01
63568;BME280;49715;42.386;20.434;2023-02-02T13:32:32;97406.94;;;14.12;36.60
63568;BME280;49715;42.386;20.434;2023-02-02T13:37:52;97417.38;;;14.14;37.69
63568;BME280;49715;42.386;20.434;2023-02-02T13:40:31;97416.69;;;14.20;37.37
63568;BME280;49715;42.386;20.434;2023-02-02T13:43:27;97432.25;;;14.23;35.86
63568;BME280;49715;42.386;20.434;2023-02-02T13:48:49;97424.50;;;14.13;37.47
63568;BME280;49715;42.386;20.434;2023-02-02T14:00:21;97422.47;;;14.24;36.63
63568;BME280;49715;42.386;20.434;2023-02-02T14:02:55;97425.41;;;14.29;37.58
63568;BME280;49715;42.386;20.434;2023-02-02T14:08:00;97427.69;;;14.40;37.96
63568;BME280;49715;42.386;20.434;2023-02-02T14:10:35;97406.84;;;14.29;37.67
63568;BME280;49715;42.386;20.434;2023-02-02T14:15:56;97427.31;;;14.43;38.11
63568;BME280;49715;42.386;20.434;2023-02-02T14:27:03;97394.31;;;13.91;37.98
63568;BME280;49715;42.386;20.434;2023-02-02T14:29:57;97412.03;;;13.91;37.69
63568;BME280;49715;42.386;20.434;2023-02-02T14:38:21;97423.75;;;13.97;38.41
63568;BME280;49715;42.386;20.434;2023-02-02T14:41:25;97435.19;;;13.97;37.45
63568;BME280;49715;42.386;20.434;2023-02-02T14:44:14;97447.91;;;14.02;38.39
63568;BME280;49715;42.386;20.434;2023-02-02T14:46:41;97448.44;;;13.89;38.29
63568;BME280;49715;42.386;20.434;2023-02-02T14:49:18;97454.81;;;13.72;38.14
63568;BME280;49715;42.386;20.434;2023-02-02T14:51:55;97444.22;;;13.55;38.30
63568;BME280;49715;42.386;20.434;2023-02-02T14:54:27;97464.09;;;13.51;38.64
63568;BME280;49715;42.386;20.434;2023-02-02T14:56:59;97462.97;;;13.37;38.69
63568;BME280;49715;42.386;20.434;2023-02-02T14:59:38;97462.66;;;13.32;37.92
63568;BME280;49715;42.386;20.434;2023-02-02T15:02:13;97445.41;;;13.20;38.91
63568;BME280;49715;42.386;20.434;2023-02-02T15:04:41;97442.78;;;13.04;38.81
63568;BME280;49715;42.386;20.434;2023-02-02T15:07:35;97427.53;;;12.65;38.01
63568;BME280;49715;42.386;20.434;2023-02-02T15:10:02;97434.91;;;12.37;39.08
63568;BME280;49715;42.386;20.434;2023-02-02T15:12:45;97420.31;;;12.08;38.83
63568;BME280;49715;42.386;20.434;2023-02-02T15:18:05;97445.00;;;11.65;39.47
63568;BME280;49715;42.386;20.434;2023-02-02T15:20:51;97428.53;;;11.37;40.02
63568;BME280;49715;42.386;20.434;2023-02-02T15:23:39;97432.03;;;11.20;39.88
63568;BME280;49715;42.386;20.434;2023-02-02T15:26:29;97465.75;;;11.08;40.42
63568;BME280;49715;42.386;20.434;2023-02-02T15:29:16;97451.38;;;10.85;40.51